createdAt,value
2023-01-12T00:03:32.823Z,13.32
2023-01-12T00:08:39.296Z,11.90
2023-01-12T00:13:45.779Z,13.50
2023-01-12T00:18:54.840Z,13.52
2023-01-12T00:29:06.893Z,11.55
2023-01-12T00:34:14.856Z,12.93
2023-01-12T00:39:22.902Z,12.77
2023-01-12T00:44:47.024Z,12.15
2023-01-12T00:49:54.972Z,13.00
2023-01-12T00:55:01.747Z,13.07
2023-01-12T01:00:11.033Z,13.23
2023-01-12T01:05:19.179Z,12.90
2023-01-12T01:10:25.438Z,12.75
2023-01-12T01:15:31.751Z,13.45
2023-01-12T01:20:40.565Z,13.32
2023-01-12T01:30:54.263Z,11.90
2023-01-12T01:36:02.665Z,10.85
2023-01-12T01:41:17.482Z,12.53
2023-01-12T01:46:42.235Z,11.68
2023-01-12T01:51:51.221Z,10.93
2023-01-12T01:56:59.296Z,10.27
2023-01-12T02:02:06.282Z,12.03
2023-01-12T02:07:14.452Z,11.05
2023-01-12T02:12:38.263Z,9.87
2023-01-12T02:18:00.868Z,10.23
2023-01-12T02:23:50.172Z,10.25
2023-01-12T02:29:30.648Z,9.95
2023-01-12T02:34:51.857Z,9.20
2023-01-12T02:40:04.433Z,8.85
2023-01-12T02:45:25.030Z,9.48
2023-01-12T02:50:41.084Z,9.35
2023-01-12T02:55:48.856Z,8.65
2023-01-12T03:00:59.076Z,7.80
2023-01-12T03:06:09.229Z,9.60
2023-01-12T03:11:17.764Z,8.32
2023-01-12T03:16:27.334Z,9.48
2023-01-12T03:21:40.131Z,8.82
2023-01-12T03:26:50.870Z,9.02
2023-01-12T03:31:59.621Z,9.25
2023-01-12T03:37:13.555Z,9.10
2023-01-12T03:42:28.089Z,10.00
2023-01-12T03:47:35.642Z,8.60
2023-01-12T03:52:45.245Z,9.32
2023-01-12T03:57:53.592Z,9.13
2023-01-12T04:03:11.258Z,9.27
2023-01-12T04:08:19.371Z,9.10
2023-01-12T04:13:26.034Z,8.13
2023-01-12T04:18:32.906Z,9.20
2023-01-12T04:23:40.675Z,9.25
2023-01-12T04:28:48.555Z,9.65
2023-01-12T04:33:55.139Z,8.20
2023-01-12T04:39:03.270Z,7.75
2023-01-12T04:44:09.898Z,8.23
2023-01-12T04:49:16.633Z,9.10
2023-01-12T04:54:24.632Z,8.85
2023-01-12T04:59:31.976Z,8.60
2023-01-12T05:04:38.251Z,9.25
2023-01-12T05:10:03.379Z,8.18
2023-01-12T05:15:11.163Z,8.10
2023-01-12T05:20:18.236Z,7.72
2023-01-12T05:25:27.039Z,9.07
2023-01-12T05:30:33.544Z,8.07
2023-01-12T05:35:40.870Z,7.95
2023-01-12T05:40:48.974Z,8.55
2023-01-12T05:45:55.696Z,8.60
2023-01-12T05:51:03.878Z,8.77
2023-01-12T05:56:17.454Z,8.50
2023-01-12T06:01:25.081Z,8.55
2023-01-12T06:06:33.152Z,9.32
2023-01-12T06:11:58.979Z,9.35
2023-01-12T06:17:05.778Z,9.13
2023-01-12T06:22:12.599Z,9.98
2023-01-12T06:27:20.994Z,8.82
2023-01-12T06:32:27.322Z,8.27
2023-01-12T06:37:33.727Z,8.88
2023-01-12T06:42:44.146Z,9.85
2023-01-12T06:47:52.486Z,7.97
2023-01-12T06:53:01.875Z,10.03
2023-01-12T06:58:09.631Z,9.38
2023-01-12T07:03:19.614Z,9.65
2023-01-12T07:08:26.260Z,9.48
2023-01-12T07:13:34.072Z,9.20
2023-01-12T07:18:40.443Z,9.38
2023-01-12T07:23:48.025Z,9.23
2023-01-12T07:28:57.343Z,9.50
2023-01-12T07:34:03.700Z,10.60
2023-01-12T07:39:11.830Z,9.45
2023-01-12T07:44:19.672Z,9.60
2023-01-12T07:49:25.912Z,9.05
2023-01-12T07:54:33.943Z,9.38
2023-01-12T07:59:41.906Z,8.73
2023-01-12T08:04:49.096Z,9.75
2023-01-12T08:09:55.780Z,9.15
2023-01-12T08:15:04.800Z,11.82
2023-01-12T08:20:17.735Z,9.65
2023-01-12T08:25:31.337Z,8.10
2023-01-12T08:30:39.344Z,8.25
2023-01-12T08:35:46.768Z,8.40
2023-01-12T08:41:10.366Z,8.30
2023-01-12T08:46:18.641Z,7.68
2023-01-12T08:51:24.957Z,8.75
2023-01-12T08:56:31.979Z,8.30
2023-01-12T09:01:40.050Z,8.02
2023-01-12T09:06:48.776Z,7.60
2023-01-12T09:11:55.435Z,8.95
2023-01-12T09:17:03.982Z,7.28
2023-01-12T09:22:12.480Z,6.97
2023-01-12T09:27:19.006Z,7.37
2023-01-12T09:32:36.208Z,8.45
2023-01-12T09:37:45.288Z,8.80
2023-01-12T09:43:10.066Z,7.28
2023-01-12T09:48:19.668Z,6.85
2023-01-12T09:53:31.461Z,6.15
2023-01-12T09:59:00.009Z,6.38
2023-01-12T10:04:08.559Z,7.00
2023-01-12T10:09:20.102Z,7.75
2023-01-12T10:15:04.947Z,5.75
2023-01-12T10:20:25.354Z,6.35
2023-01-12T10:25:41.103Z,5.40
2023-01-12T10:30:47.816Z,4.07
2023-01-12T10:36:02.346Z,4.40
2023-01-12T10:41:18.695Z,4.97
2023-01-12T10:46:27.793Z,4.15
2023-01-12T10:51:37.604Z,3.25
2023-01-12T10:56:54.335Z,5.45
2023-01-12T11:02:17.935Z,4.72
2023-01-12T11:07:29.378Z,4.35
2023-01-12T11:12:38.205Z,4.07
2023-01-12T11:18:03.905Z,6.40
2023-01-12T11:23:20.588Z,4.20
2023-01-12T11:28:33.826Z,3.90
2023-01-12T11:33:44.379Z,4.47
2023-01-12T11:38:56.586Z,4.00
2023-01-12T11:44:17.026Z,4.43
2023-01-12T11:49:31.188Z,3.83
2023-01-12T11:54:40.962Z,3.63
2023-01-12T12:00:06.101Z,3.40
2023-01-12T12:05:36.711Z,3.70
2023-01-12T12:10:52.803Z,3.58
2023-01-12T12:16:15.903Z,3.53
2023-01-12T12:21:50.549Z,3.35
2023-01-12T12:27:13.204Z,5.00
2023-01-12T12:32:32.571Z,3.47
2023-01-12T12:37:54.491Z,3.65
2023-01-12T12:43:32.761Z,3.72
2023-01-12T12:53:54.831Z,4.07
2023-01-12T12:59:04.324Z,4.13
2023-01-12T13:04:14.618Z,4.07
2023-01-12T13:15:22.606Z,4.40
2023-01-12T13:20:59.993Z,4.60
2023-01-12T13:26:37.746Z,4.25
2023-01-12T13:31:47.801Z,4.13
2023-01-12T13:37:22.431Z,3.20
2023-01-12T13:42:47.857Z,3.65
2023-01-12T13:47:56.315Z,4.85
2023-01-12T13:53:06.519Z,4.70
2023-01-12T13:58:20.364Z,3.88
2023-01-12T14:04:01.653Z,5.22
2023-01-12T14:09:22.560Z,5.18
2023-01-12T14:15:08.278Z,4.53
2023-01-12T14:20:21.136Z,4.00
2023-01-12T14:25:27.799Z,3.35
2023-01-12T14:30:35.325Z,3.72
2023-01-12T14:35:47.946Z,3.45
2023-01-12T14:41:03.648Z,3.83
2023-01-12T14:46:27.587Z,3.30
2023-01-12T14:51:37.406Z,5.32
2023-01-12T14:56:49.591Z,4.85
2023-01-12T15:02:35.726Z,3.75
2023-01-12T15:07:55.663Z,4.28
2023-01-12T15:13:28.412Z,4.32
2023-01-12T15:18:53.863Z,5.80
2023-01-12T15:24:19.327Z,4.40
2023-01-12T15:29:25.524Z,4.38
2023-01-12T15:34:31.917Z,3.15
2023-01-12T15:39:39.775Z,3.85
2023-01-12T15:44:47.264Z,3.90
2023-01-12T15:49:54.040Z,4.60
2023-01-12T15:55:02.160Z,9.82
2023-01-12T16:00:15.798Z,11.20
2023-01-12T16:05:24.698Z,9.02
2023-01-12T16:10:33.293Z,10.95
2023-01-12T16:15:40.218Z,7.43
2023-01-12T16:20:47.225Z,6.40
2023-01-12T16:26:00.077Z,5.93
2023-01-12T16:31:10.263Z,8.00
2023-01-12T16:36:18.972Z,7.57
2023-01-12T16:41:27.432Z,5.55
2023-01-12T16:46:34.017Z,6.10
2023-01-12T16:51:40.699Z,6.25
2023-01-12T16:56:49.068Z,8.85
2023-01-12T17:01:56.260Z,8.23
2023-01-12T17:07:02.879Z,10.23
2023-01-12T17:12:11.204Z,11.93
2023-01-12T17:17:17.689Z,9.45
2023-01-12T17:22:24.321Z,10.85
2023-01-12T17:27:32.403Z,10.43
2023-01-12T17:32:39.184Z,7.57
2023-01-12T17:37:45.806Z,8.27
2023-01-12T17:43:08.254Z,8.15
2023-01-12T17:48:18.350Z,7.00
2023-01-12T17:53:24.916Z,7.35
2023-01-12T17:58:33.039Z,6.93
2023-01-12T18:03:41.609Z,7.15
2023-01-12T18:08:49.356Z,7.25
2023-01-12T18:13:57.811Z,7.95
2023-01-12T18:19:06.393Z,7.13
2023-01-12T18:24:13.801Z,7.90
2023-01-12T18:29:22.463Z,7.13
2023-01-12T18:34:29.914Z,6.63
2023-01-12T18:39:37.969Z,7.20
2023-01-12T18:44:48.616Z,7.15
2023-01-12T18:49:58.514Z,7.78
2023-01-12T18:55:06.883Z,6.78
2023-01-12T19:00:18.700Z,8.32
2023-01-12T19:05:35.398Z,7.15
2023-01-12T19:10:42.143Z,7.38
2023-01-12T19:16:10.861Z,7.18
2023-01-12T19:21:38.424Z,5.75
2023-01-12T19:27:04.309Z,5.80
2023-01-12T19:32:13.561Z,5.53
2023-01-12T19:37:21.365Z,5.68
2023-01-12T19:42:46.984Z,6.03
2023-01-12T19:47:56.900Z,5.45
2023-01-12T19:53:06.306Z,5.97
2023-01-12T19:58:16.078Z,5.95
2023-01-12T20:03:28.306Z,5.68
2023-01-12T20:08:36.398Z,5.43
2023-01-12T20:13:45.999Z,5.65
2023-01-12T20:19:00.589Z,5.55
2023-01-12T20:24:10.015Z,5.25
2023-01-12T20:29:18.437Z,4.97
2023-01-12T20:34:28.143Z,5.05
2023-01-12T20:39:35.343Z,5.35
2023-01-12T20:44:43.344Z,4.90
2023-01-12T20:49:53.461Z,5.93
2023-01-12T20:55:01.857Z,5.43
2023-01-12T21:00:13.580Z,5.90
2023-01-12T21:05:22.653Z,5.90
2023-01-12T21:10:30.492Z,5.40
2023-01-12T21:15:37.220Z,5.95
2023-01-12T21:20:46.599Z,5.88
2023-01-12T21:25:55.884Z,5.25
2023-01-12T21:31:03.812Z,4.70
2023-01-12T21:36:14.680Z,5.20
2023-01-12T21:41:22.869Z,5.00
2023-01-12T21:46:31.819Z,5.20
2023-01-12T21:51:39.597Z,4.78
2023-01-12T21:56:46.150Z,5.38
2023-01-12T22:01:52.982Z,5.45
2023-01-12T22:07:01.272Z,5.18
2023-01-12T22:12:10.066Z,4.07
2023-01-12T22:17:16.415Z,4.95
2023-01-12T22:22:24.282Z,4.50
2023-01-12T22:27:30.481Z,5.00
2023-01-12T22:32:37.075Z,5.53
2023-01-12T22:37:45.053Z,4.70
2023-01-12T22:43:08.623Z,5.50
2023-01-12T22:48:14.977Z,4.40
2023-01-12T22:53:24.477Z,5.35
2023-01-12T22:58:31.286Z,5.28
2023-01-12T23:03:38.730Z,5.00
2023-01-12T23:08:47.535Z,4.78
2023-01-12T23:13:54.719Z,5.85
2023-01-12T23:19:02.562Z,4.65
2023-01-12T23:24:10.873Z,4.60
2023-01-12T23:29:17.932Z,4.80
2023-01-12T23:39:49.988Z,4.30
2023-01-12T23:44:57.004Z,4.40
2023-01-12T23:50:03.344Z,5.28
2023-01-12T23:55:11.659Z,4.80
